Aeroporto :
LOGIN :

Iscrizione | Disclaimer

   EN    FR    IT 

 










Sommario :    VFR   VFR Marginale   IFR   IFR Intensivo   IFR Molto Intensivo
Visibilità : 
Base nubi : 
>= 8 km
>= 3000ft
5 / 8 km
1000 / 3000 ft
1500m / 5 km
500 / 1000 ft
800 / 1500m
200 / 500 ft
< 800m
< 200 ft
Simboli :   Temporali  Nebbia  Neve Forte  Precipitazioni Forti  Vento > 20 kt
SIGMETs :   Varie  Temporali  Ghiacco  Turbolenza  Onda orograficha  Ceneri Vulcaniche






- Altitudine del aeroporto : 42 ft
- Codice IATA : CAL


EGEC - Campbeltown

ULTIMO METAR :
  • 221250Z 26012KT 4500 BR OVC004 09/09 Q1038

METARs OBSOLETI :
  • 221220Z 25012KT 4800 BR OVC006 09/09 Q1038
  • 221150Z 25009KT 9999 BKN008 09/09 Q1038
  • 221120Z 26007KT 9000 FEW003 BKN007 09/09 Q1038
  • 221050Z 28007KT 5000 BKN006 09/09 Q1038
  • 221020Z 28007KT 3400 BR OVC004 09/09 Q1038

TAF AMD TAF EGEC
Valido dal 22 a 13 ore il 22 a 18 ore UTC


221303Z 2213/2218 28009KT 4000 BR BKN004
BECMG 2213/2215 9999 NSW SCT016
PROB40
TEMPO 2215/2218 BKN012



MetMap, La meteo Aeronautica in un colpo d'occhio ! - Copyright ORBIFLY Dicembre 2007 - Disclaimer

ORBIFLY MET'MAP TEAM :

Programmazione e sviluppo : Alexandra Zaïnal
Concezione : Baudouin d'Aumeries
Aiuto per la programmazione : Marc-Olivier Méhu
Supporto tecnico e logistico : Manuel Goepfert
Aiuto per la traduzione : Arnaldo La Scala

Contatto : metmap@orbifly.com




FONTI E CREDITI :

   NOAA